Time,TemperatureF,DewpointF,PressureIn,WindDirection,WindDirectionDegrees,WindSpeedMPH,WindSpeedGustMPH,Humidity,HourlyPrecipIn,Conditions,Clouds,dailyrainin,SoftwareType,DateUTC
2013-09-09 00:00:00,52.5,49.4,30.05,ESE,111,0.0,0.0,89,0.00,,,0.00,Wunderground v.1.15,2013-09-09 04:00:00,
2013-09-09 00:05:00,52.5,49.7,30.05,ESE,111,0.0,0.0,90,0.00,,,0.00,Wunderground v.1.15,2013-09-09 04:05:00,
2013-09-09 00:15:00,53.0,50.1,30.05,ESE,112,0.0,0.0,90,0.00,,,0.00,Wunderground v.1.15,2013-09-09 04:15:00,
2013-09-09 00:20:00,53.2,50.0,30.05,ESE,112,0.0,0.0,89,0.00,,,0.00,Wunderground v.1.15,2013-09-09 04:20:00,
2013-09-09 00:25:00,53.3,50.1,30.05,ESE,112,0.0,0.0,89,0.00,,,0.00,Wunderground v.1.15,2013-09-09 04:25:00,
2013-09-09 00:30:00,53.3,50.1,30.05,ESE,111,0.0,0.0,89,0.00,,,0.00,Wunderground v.1.15,2013-09-09 04:30:00,
2013-09-09 00:35:00,53.5,50.3,30.05,ESE,112,0.0,0.0,89,0.00,,,0.00,Wunderground v.1.15,2013-09-09 04:35:00,
2013-09-09 00:40:00,53.6,50.1,30.05,ESE,111,0.0,0.0,88,0.00,,,0.00,Wunderground v.1.15,2013-09-09 04:40:00,
2013-09-09 00:50:00,53.6,50.1,30.05,ESE,111,0.0,0.0,88,0.00,,,0.00,Wunderground v.1.15,2013-09-09 04:50:00,
2013-09-09 00:55:00,53.3,49.8,30.05,ESE,111,0.0,0.0,88,0.00,,,0.00,Wunderground v.1.15,2013-09-09 04:55:00,
2013-09-09 01:00:00,53.0,49.8,30.05,ESE,112,0.0,0.0,89,0.00,,,0.00,Wunderground v.1.15,2013-09-09 05:00:00,
2013-09-09 01:10:00,52.7,49.8,30.05,ESE,111,0.0,0.0,90,0.00,,,0.00,Wunderground v.1.15,2013-09-09 05:10:00,
2013-09-09 01:20:00,52.6,50.0,30.05,ESE,112,0.0,0.0,91,0.00,,,0.00,Wunderground v.1.15,2013-09-09 05:20:00,
2013-09-09 01:30:00,52.5,49.9,30.05,ESE,112,0.0,0.0,91,0.00,,,0.00,Wunderground v.1.15,2013-09-09 05:30:00,
2013-09-09 01:40:00,52.6,50.0,30.06,ESE,112,0.0,0.0,91,0.00,,,0.00,Wunderground v.1.15,2013-09-09 05:40:00,
2013-09-09 01:50:00,52.4,49.8,30.06,ESE,112,0.0,0.0,91,0.00,,,0.00,Wunderground v.1.15,2013-09-09 05:50:00,
2013-09-09 01:55:00,52.3,49.8,30.07,ESE,111,0.0,0.0,91,0.00,,,0.00,Wunderground v.1.15,2013-09-09 05:55:00,
2013-09-09 02:00:00,52.1,49.6,30.06,ESE,112,0.0,0.0,91,0.00,,,0.00,Wunderground v.1.15,2013-09-09 06:00:00,
2013-09-09 02:10:00,51.5,49.0,30.06,ESE,112,0.0,0.0,91,0.00,,,0.00,Wunderground v.1.15,2013-09-09 06:10:00,
2013-09-09 02:15:00,51.4,49.2,30.06,ESE,111,0.0,0.0,92,0.00,,,0.00,Wunderground v.1.15,2013-09-09 06:15:00,
2013-09-09 02:25:00,51.3,49.3,30.06,ESE,112,0.0,0.0,93,0.00,,,0.00,Wunderground v.1.15,2013-09-09 06:25:00,
2013-09-09 02:30:00,51.1,49.1,30.06,ESE,112,0.0,0.0,93,0.00,,,0.00,Wunderground v.1.15,2013-09-09 06:30:00,
2013-09-09 02:35:00,50.8,48.8,30.06,ESE,112,0.0,0.0,93,0.00,,,0.00,Wunderground v.1.15,2013-09-09 06:35:00,
2013-09-09 02:45:00,50.6,48.9,30.06,ESE,112,0.0,0.0,94,0.00,,,0.00,Wunderground v.1.15,2013-09-09 06:45:00,
2013-09-09 02:50:00,50.5,48.8,30.06,ESE,111,0.0,0.0,94,0.00,,,0.00,Wunderground v.1.15,2013-09-09 06:50:00,
2013-09-09 03:00:00,50.2,48.5,30.06,ESE,112,0.0,0.0,94,0.00,,,0.00,Wunderground v.1.15,2013-09-09 07:00:00,
2013-09-09 03:05:00,50.1,48.4,30.06,ESE,112,0.0,0.0,94,0.00,,,0.00,Wunderground v.1.15,2013-09-09 07:05:00,
2013-09-09 03:15:00,50.1,48.7,30.06,ESE,112,0.0,0.0,95,0.00,,,0.00,Wunderground v.1.15,2013-09-09 07:15:00,
2013-09-09 03:20:00,50.2,48.8,30.06,ESE,112,0.0,0.0,95,0.00,,,0.00,Wunderground v.1.15,2013-09-09 07:20:00,
2013-09-09 03:25:00,50.4,49.3,30.06,ESE,112,0.0,0.0,96,0.00,,,0.00,Wunderground v.1.15,2013-09-09 07:25:00,
2013-09-09 03:35:00,50.8,49.4,30.06,ESE,112,0.0,0.0,95,0.00,,,0.00,Wunderground v.1.15,2013-09-09 07:35:00,
2013-09-09 03:40:00,51.0,49.9,30.06,ESE,111,0.0,0.0,96,0.00,,,0.00,Wunderground v.1.15,2013-09-09 07:40:00,
2013-09-09 03:50:00,51.4,50.3,30.06,ESE,112,0.0,0.0,96,0.00,,,0.00,Wunderground v.1.15,2013-09-09 07:50:00,
2013-09-09 03:55:00,51.8,50.7,30.05,ESE,112,0.0,0.0,96,0.00,,,0.00,Wunderground v.1.15,2013-09-09 07:55:00,
2013-09-09 04:00:00,52.0,50.9,30.05,ESE,112,0.0,0.0,96,0.00,,,0.00,Wunderground v.1.15,2013-09-09 08:00:00,
2013-09-09 04:10:00,52.4,51.3,30.05,ESE,112,0.0,0.0,96,0.00,,,0.00,Wunderground v.1.15,2013-09-09 08:10:00,
2013-09-09 04:15:00,52.8,51.7,30.05,ESE,111,0.0,0.0,96,0.00,,,0.00,Wunderground v.1.15,2013-09-09 08:15:00,
2013-09-09 04:25:00,53.3,52.2,30.05,ESE,112,0.0,0.0,96,0.00,,,0.00,Wunderground v.1.15,2013-09-09 08:25:00,
2013-09-09 04:35:00,53.9,52.8,30.05,ESE,111,0.0,0.0,96,0.00,,,0.00,Wunderground v.1.15,2013-09-09 08:35:00,
2013-09-09 04:45:00,54.6,53.2,30.05,ESE,112,0.0,0.0,95,0.00,,,0.00,Wunderground v.1.15,2013-09-09 08:45:00,
2013-09-09 04:50:00,54.9,53.5,30.05,ESE,112,0.0,0.0,95,0.00,,,0.00,Wunderground v.1.15,2013-09-09 08:50:00,
2013-09-09 05:00:00,55.4,54.0,30.05,ESE,112,0.0,0.0,95,0.00,,,0.00,Wunderground v.1.15,2013-09-09 09:00:00,
2013-09-09 05:10:00,55.9,54.2,30.05,ESE,112,0.0,0.0,94,0.00,,,0.00,Wunderground v.1.15,2013-09-09 09:10:00,
2013-09-09 05:20:00,56.5,54.5,30.05,ESE,111,0.0,0.0,93,0.00,,,0.00,Wunderground v.1.15,2013-09-09 09:20:00,
2013-09-09 05:30:00,56.9,54.6,30.05,ESE,112,0.0,0.0,92,0.00,,,0.00,Wunderground v.1.15,2013-09-09 09:30:00,
2013-09-09 05:35:00,57.0,54.4,30.05,ESE,111,0.0,0.0,91,0.00,,,0.00,Wunderground v.1.15,2013-09-09 09:35:00,
2013-09-09 05:50:00,57.3,54.7,30.04,ESE,111,0.0,0.0,91,0.00,,,0.00,Wunderground v.1.15,2013-09-09 09:50:00,
2013-09-09 05:55:00,57.3,54.7,30.04,ESE,112,0.0,0.0,91,0.00,,,0.00,Wunderground v.1.15,2013-09-09 09:55:00,
2013-09-09 06:00:00,57.5,54.6,30.04,ESE,115,0.0,0.0,90,0.00,,,0.00,Wunderground v.1.15,2013-09-09 10:00:00,
2013-09-09 06:10:00,57.5,54.6,30.04,ESE,114,0.0,0.0,90,0.00,,,0.00,Wunderground v.1.15,2013-09-09 10:10:00,
2013-09-09 06:20:00,57.7,54.8,30.04,ESE,114,0.0,0.0,90,0.00,,,0.00,Wunderground v.1.15,2013-09-09 10:20:00,
2013-09-09 06:25:00,57.9,55.0,30.04,ESE,114,0.0,0.0,90,0.00,,,0.00,Wunderground v.1.15,2013-09-09 10:25:00,
2013-09-09 06:35:00,58.1,54.9,30.04,ESE,121,0.0,0.0,89,0.00,,,0.00,Wunderground v.1.15,2013-09-09 10:35:00,
2013-09-09 06:45:00,58.3,55.1,30.04,ESE,121,0.0,0.0,89,0.00,,,0.00,Wunderground v.1.15,2013-09-09 10:45:00,
2013-09-09 06:55:00,58.3,55.1,30.03,ESE,109,0.0,0.0,89,0.00,,,0.00,Wunderground v.1.15,2013-09-09 10:55:00,
2013-09-09 07:05:00,58.4,54.9,30.04,ESE,108,0.0,0.0,88,0.00,,,0.00,Wunderground v.1.15,2013-09-09 11:05:00,
2013-09-09 07:15:00,58.7,55.5,30.04,ESE,109,0.0,0.0,89,0.00,,,0.00,Wunderground v.1.15,2013-09-09 11:15:00,
2013-09-09 07:25:00,58.9,55.4,30.03,East,101,0.0,0.0,88,0.00,,,0.00,Wunderground v.1.15,2013-09-09 11:25:00,
2013-09-09 07:35:00,59.0,55.4,30.05,East,101,0.0,0.0,88,0.00,,,0.00,Wunderground v.1.15,2013-09-09 11:35:00,
2013-09-09 07:40:00,58.9,55.4,30.05,ESE,102,0.0,0.0,88,0.00,,,0.00,Wunderground v.1.15,2013-09-09 11:40:00,
2013-09-09 07:50:00,58.9,55.7,30.05,East,101,0.0,0.0,89,0.00,,,0.00,Wunderground v.1.15,2013-09-09 11:50:00,
2013-09-09 08:00:00,59.0,55.8,30.04,East,101,0.0,0.0,89,0.00,,,0.00,Wunderground v.1.15,2013-09-09 12:00:00,
2013-09-09 08:10:00,59.5,55.6,30.04,ESE,103,0.0,0.0,87,0.00,,,0.00,Wunderground v.1.15,2013-09-09 12:10:00,
2013-09-09 08:20:00,60.2,55.3,30.04,ESE,116,0.0,0.0,84,0.00,,,0.00,Wunderground v.1.15,2013-09-09 12:20:00,
2013-09-09 08:25:00,60.5,55.6,30.04,East,99,0.0,0.0,84,0.00,,,0.00,Wunderground v.1.15,2013-09-09 12:25:00,
2013-09-09 08:35:00,60.7,55.8,30.04,East,101,0.0,0.0,84,0.00,,,0.00,Wunderground v.1.15,2013-09-09 12:35:00,
2013-09-09 08:45:00,60.9,55.4,30.04,ESE,107,0.0,1.0,82,0.00,,,0.00,Wunderground v.1.15,2013-09-09 12:45:00,
2013-09-09 08:55:00,61.3,56.1,30.03,ESE,105,0.0,0.0,83,0.00,,,0.00,Wunderground v.1.15,2013-09-09 12:55:00,
2013-09-09 09:05:00,61.4,55.9,30.03,ESE,110,0.0,0.0,82,0.00,,,0.00,Wunderground v.1.15,2013-09-09 13:05:00,
2013-09-09 09:15:00,61.7,56.1,30.03,ESE,110,0.0,0.0,82,0.00,,,0.00,Wunderground v.1.15,2013-09-09 13:15:00,
2013-09-09 09:25:00,61.8,55.9,30.02,ESE,103,0.0,1.0,81,0.00,,,0.00,Wunderground v.1.15,2013-09-09 13:25:00,
2013-09-09 09:35:00,62.1,56.9,30.02,ESE,108,0.0,0.0,83,0.00,,,0.00,Wunderground v.1.15,2013-09-09 13:35:00,
2013-09-09 09:40:00,62.3,57.1,30.02,ESE,109,0.0,0.0,83,0.00,,,0.00,Wunderground v.1.15,2013-09-09 13:40:00,
2013-09-09 09:50:00,62.5,56.9,30.02,ESE,107,0.0,0.0,82,0.00,,,0.00,Wunderground v.1.15,2013-09-09 13:50:00,
2013-09-09 09:55:00,62.6,57.0,30.02,ESE,108,0.0,0.0,82,0.00,,,0.00,Wunderground v.1.15,2013-09-09 13:55:00,
2013-09-09 10:00:00,62.8,57.6,30.02,ESE,107,0.0,0.0,83,0.00,,,0.00,Wunderground v.1.15,2013-09-09 14:00:00,
2013-09-09 10:05:00,63.1,58.2,30.02,ESE,109,0.0,0.0,84,0.00,,,0.00,Wunderground v.1.15,2013-09-09 14:05:00,
2013-09-09 10:15:00,63.8,57.5,30.03,ESE,108,0.0,0.0,80,0.00,,,0.00,Wunderground v.1.15,2013-09-09 14:15:00,
2013-09-09 10:25:00,64.4,57.7,30.03,ESE,105,0.0,0.0,79,0.00,,,0.00,Wunderground v.1.15,2013-09-09 14:25:00,
2013-09-09 10:35:00,65.1,58.4,30.03,ESE,105,0.0,0.0,79,0.00,,,0.00,Wunderground v.1.15,2013-09-09 14:35:00,
2013-09-09 10:45:00,65.7,58.3,30.03,ESE,105,0.0,0.0,77,0.00,,,0.00,Wunderground v.1.15,2013-09-09 14:45:00,
2013-09-09 10:55:00,65.8,58.4,30.03,ESE,106,0.0,1.0,77,0.00,,,0.00,Wunderground v.1.15,2013-09-09 14:55:00,
2013-09-09 11:00:00,65.7,58.3,30.03,ESE,103,0.0,1.0,77,0.00,,,0.00,Wunderground v.1.15,2013-09-09 15:00:00,
2013-09-09 11:10:00,65.6,58.9,30.02,ESE,110,0.0,1.0,79,0.00,,,0.00,Wunderground v.1.15,2013-09-09 15:10:00,
2013-09-09 11:20:00,65.3,59.0,30.03,ESE,103,0.0,1.0,80,0.00,,,0.00,Wunderground v.1.15,2013-09-09 15:20:00,
2013-09-09 11:30:00,65.0,59.0,30.03,East,93,0.0,1.0,81,0.00,,,0.00,Wunderground v.1.15,2013-09-09 15:30:00,
2013-09-09 11:40:00,65.3,60.0,30.03,ESE,117,0.0,1.0,83,0.00,,,0.00,Wunderground v.1.15,2013-09-09 15:40:00,
2013-09-09 11:45:00,65.5,59.9,30.03,ESE,117,0.0,1.0,82,0.00,,,0.00,Wunderground v.1.15,2013-09-09 15:45:00,
2013-09-09 11:55:00,65.9,60.6,30.04,ESE,117,0.0,1.0,83,0.00,,,0.01,Wunderground v.1.15,2013-09-09 15:55:00,
2013-09-09 12:00:00,66.1,61.1,30.04,ESE,117,0.0,0.0,84,0.00,,,0.01,Wunderground v.1.15,2013-09-09 16:00:00,
2013-09-09 12:10:00,66.4,61.4,30.04,ESE,117,0.0,0.0,84,0.00,,,0.01,Wunderground v.1.15,2013-09-09 16:10:00,
2013-09-09 12:15:00,66.2,61.2,30.03,ESE,117,0.0,0.0,84,0.00,,,0.01,Wunderground v.1.15,2013-09-09 16:15:00,
2013-09-09 12:25:00,65.8,61.5,30.03,ESE,117,0.0,0.0,86,0.00,,,0.02,Wunderground v.1.15,2013-09-09 16:25:00,
2013-09-09 12:35:00,65.5,62.2,30.03,ESE,117,0.0,0.0,89,0.00,,,0.02,Wunderground v.1.15,2013-09-09 16:35:00,
2013-09-09 12:45:00,65.3,62.3,30.02,ESE,117,0.0,0.0,90,0.00,,,0.02,Wunderground v.1.15,2013-09-09 16:45:00,
2013-09-09 12:55:00,65.1,62.1,30.02,ESE,117,0.0,1.0,90,0.00,,,0.03,Wunderground v.1.15,2013-09-09 16:55:00,
2013-09-09 13:05:00,65.0,62.3,30.00,ESE,107,0.0,1.0,91,0.00,,,0.03,Wunderground v.1.15,2013-09-09 17:05:00,
2013-09-09 13:15:00,64.9,62.5,29.99,ESE,110,0.0,1.0,92,0.00,,,0.03,Wunderground v.1.15,2013-09-09 17:15:00,
2013-09-09 13:25:00,65.0,62.9,29.98,ESE,110,0.0,1.0,93,0.00,,,0.04,Wunderground v.1.15,2013-09-09 17:25:00,
2013-09-09 13:35:00,65.1,63.3,29.98,ESE,117,0.0,1.0,94,0.07,,,0.05,Wunderground v.1.15,2013-09-09 17:35:00,
2013-09-09 13:45:00,65.4,63.6,29.98,SSE,152,0.0,1.0,94,0.04,,,0.05,Wunderground v.1.15,2013-09-09 17:45:00,
2013-09-09 13:55:00,65.5,63.7,29.97,ESE,116,0.0,1.0,94,0.00,,,0.06,Wunderground v.1.15,2013-09-09 17:55:00,
2013-09-09 14:00:00,65.7,64.2,29.97,ESE,110,0.0,0.0,95,0.00,,,0.06,Wunderground v.1.15,2013-09-09 18:00:00,
2013-09-09 14:10:00,66.1,64.6,29.98,ESE,110,0.0,0.0,95,0.00,,,0.06,Wunderground v.1.15,2013-09-09 18:10:00,
2013-09-09 14:15:00,66.3,64.8,29.98,ESE,110,0.0,0.0,95,0.00,,,0.06,Wunderground v.1.15,2013-09-09 18:15:00,
2013-09-09 14:25:00,66.6,65.1,29.98,ESE,110,0.0,0.0,95,0.00,,,0.06,Wunderground v.1.15,2013-09-09 18:25:00,
2013-09-09 14:30:00,66.7,64.9,29.98,ESE,110,0.0,0.0,94,0.00,,,0.06,Wunderground v.1.15,2013-09-09 18:30:00,
2013-09-09 14:40:00,67.0,65.2,29.98,ESE,111,0.0,0.0,94,0.00,,,0.06,Wunderground v.1.15,2013-09-09 18:40:00,
2013-09-09 14:45:00,67.1,65.3,29.98,ESE,110,0.0,0.0,94,0.00,,,0.06,Wunderground v.1.15,2013-09-09 18:45:00,
2013-09-09 14:50:00,67.2,65.1,29.98,ESE,111,0.0,1.0,93,0.00,,,0.06,Wunderground v.1.15,2013-09-09 18:50:00,
2013-09-09 15:00:00,67.8,65.7,29.97,ESE,120,0.0,1.0,93,0.00,,,0.06,Wunderground v.1.15,2013-09-09 19:00:00,
2013-09-09 15:10:00,68.5,66.4,29.97,ESE,113,0.0,1.0,93,0.00,,,0.06,Wunderground v.1.15,2013-09-09 19:10:00,
2013-09-09 15:20:00,69.2,66.8,29.96,ESE,111,0.0,1.0,92,0.00,,,0.06,Wunderground v.1.15,2013-09-09 19:20:00,
2013-09-09 15:25:00,69.7,67.0,29.96,ESE,114,0.0,1.0,91,0.00,,,0.06,Wunderground v.1.15,2013-09-09 19:25:00,
2013-09-09 15:30:00,70.2,67.1,29.96,ESE,114,0.0,1.0,90,0.00,,,0.06,Wunderground v.1.15,2013-09-09 19:30:00,
2013-09-09 15:40:00,70.7,67.3,29.96,SE,125,0.0,1.0,89,0.00,,,0.06,Wunderground v.1.15,2013-09-09 19:40:00,
2013-09-09 15:50:00,70.9,67.5,29.95,ESE,104,0.0,1.0,89,0.00,,,0.06,Wunderground v.1.15,2013-09-09 19:50:00,
2013-09-09 16:00:00,70.7,67.3,29.95,ESE,108,0.0,1.0,89,0.00,,,0.06,Wunderground v.1.15,2013-09-09 20:00:00,
2013-09-09 16:10:00,70.7,67.6,29.94,ESE,103,0.0,0.0,90,0.00,,,0.06,Wunderground v.1.15,2013-09-09 20:10:00,
2013-09-09 16:20:00,71.2,67.8,29.94,East,93,0.0,0.0,89,0.00,,,0.06,Wunderground v.1.15,2013-09-09 20:20:00,
2013-09-09 16:25:00,71.2,67.5,29.95,East,89,1.0,1.0,88,0.00,,,0.06,Wunderground v.1.15,2013-09-09 20:25:00,
2013-09-09 16:35:00,70.9,67.2,29.95,ESE,104,1.0,1.0,88,0.00,,,0.06,Wunderground v.1.15,2013-09-09 20:35:00,
2013-09-09 16:45:00,70.8,67.4,29.95,SE,124,1.0,1.0,89,0.00,,,0.06,Wunderground v.1.15,2013-09-09 20:45:00,
2013-09-09 16:55:00,70.9,67.8,29.94,ESE,115,0.0,3.0,90,0.00,,,0.06,Wunderground v.1.15,2013-09-09 20:55:00,
2013-09-09 17:05:00,70.9,67.8,29.94,ESE,113,1.0,3.0,90,0.00,,,0.06,Wunderground v.1.15,2013-09-09 21:05:00,
2013-09-09 17:10:00,71.0,67.6,29.94,ESE,115,1.0,1.0,89,0.00,,,0.06,Wunderground v.1.15,2013-09-09 21:10:00,
2013-09-09 17:20:00,71.3,67.9,29.94,ESE,115,0.0,3.0,89,0.00,,,0.06,Wunderground v.1.15,2013-09-09 21:20:00,
2013-09-09 17:30:00,72.4,69.0,29.93,ESE,118,0.0,3.0,89,0.00,,,0.06,Wunderground v.1.15,2013-09-09 21:30:00,
2013-09-09 17:40:00,73.4,69.3,29.93,ESE,114,0.0,3.0,87,0.00,,,0.06,Wunderground v.1.15,2013-09-09 21:40:00,
2013-09-09 17:45:00,73.4,69.0,29.93,ESE,109,1.0,3.0,86,0.00,,,0.06,Wunderground v.1.15,2013-09-09 21:45:00,
2013-09-09 17:50:00,73.5,68.7,29.93,ESE,103,1.0,1.0,85,0.00,,,0.06,Wunderground v.1.15,2013-09-09 21:50:00,
2013-09-09 18:00:00,73.5,69.1,29.93,SE,135,1.0,1.0,86,0.00,,,0.06,Wunderground v.1.15,2013-09-09 22:00:00,
2013-09-09 18:10:00,73.9,69.1,29.93,ESE,119,1.0,1.0,85,0.00,,,0.06,Wunderground v.1.15,2013-09-09 22:10:00,
2013-09-09 18:20:00,74.2,69.1,29.92,SE,129,1.0,1.0,84,0.00,,,0.06,Wunderground v.1.15,2013-09-09 22:20:00,
2013-09-09 18:30:00,74.4,69.6,29.92,ESE,111,0.0,0.0,85,0.00,,,0.06,Wunderground v.1.15,2013-09-09 22:30:00,
2013-09-09 18:35:00,74.6,69.1,29.92,ESE,116,1.0,2.0,83,0.00,,,0.06,Wunderground v.1.15,2013-09-09 22:35:00,
2013-09-09 18:40:00,74.3,69.1,29.92,ESE,120,1.0,1.0,84,0.00,,,0.06,Wunderground v.1.15,2013-09-09 22:40:00,
2013-09-09 18:45:00,74.2,69.1,29.92,ESE,108,1.0,1.0,84,0.00,,,0.06,Wunderground v.1.15,2013-09-09 22:45:00,
2013-09-09 18:55:00,74.1,69.3,29.91,East,97,0.0,3.0,85,0.00,,,0.06,Wunderground v.1.15,2013-09-09 22:55:00,
2013-09-09 19:05:00,73.4,68.6,29.91,East,95,0.0,3.0,85,0.00,,,0.06,Wunderground v.1.15,2013-09-09 23:05:00,
2013-09-09 19:15:00,72.7,68.3,29.91,East,100,0.0,3.0,86,0.00,,,0.06,Wunderground v.1.15,2013-09-09 23:15:00,
2013-09-09 19:25:00,72.2,68.4,29.91,East,100,0.0,3.0,88,0.00,,,0.06,Wunderground v.1.15,2013-09-09 23:25:00,
2013-09-09 19:35:00,71.8,68.4,29.91,ESE,102,0.0,3.0,89,0.00,,,0.06,Wunderground v.1.15,2013-09-09 23:35:00,
2013-09-09 19:40:00,71.5,68.1,29.90,SE,129,0.0,3.0,89,0.00,,,0.06,Wunderground v.1.15,2013-09-09 23:40:00,
2013-09-09 19:50:00,71.2,68.1,29.91,ESE,115,0.0,3.0,90,0.00,,,0.06,Wunderground v.1.15,2013-09-09 23:50:00,
2013-09-09 20:00:00,70.7,67.9,29.91,ESE,107,0.0,0.0,91,0.00,,,0.06,Wunderground v.1.15,2013-09-10 00:00:00,
2013-09-09 20:05:00,70.6,67.8,29.91,ESE,108,0.0,0.0,91,0.00,,,0.06,Wunderground v.1.15,2013-09-10 00:05:00,
2013-09-09 20:15:00,70.2,67.4,29.91,ESE,107,0.0,0.0,91,0.00,,,0.06,Wunderground v.1.15,2013-09-10 00:15:00,
2013-09-09 20:20:00,69.9,67.5,29.91,ESE,107,0.0,0.0,92,0.00,,,0.06,Wunderground v.1.15,2013-09-10 00:20:00,
2013-09-09 20:30:00,69.7,67.3,29.92,ESE,107,0.0,0.0,92,0.00,,,0.06,Wunderground v.1.15,2013-09-10 00:30:00,
2013-09-09 20:40:00,69.4,67.3,29.92,ESE,107,0.0,0.0,93,0.00,,,0.06,Wunderground v.1.15,2013-09-10 00:40:00,
2013-09-09 20:50:00,69.0,66.9,29.92,ESE,107,0.0,3.0,93,0.00,,,0.06,Wunderground v.1.15,2013-09-10 00:50:00,
2013-09-09 21:00:00,68.8,66.7,29.93,ESE,107,0.0,3.0,93,0.00,,,0.06,Wunderground v.1.15,2013-09-10 01:00:00,
2013-09-09 21:10:00,68.6,66.8,29.93,ESE,107,0.0,3.0,94,0.00,,,0.06,Wunderground v.1.15,2013-09-10 01:10:00,
2013-09-09 21:15:00,68.5,66.7,29.93,ESE,107,0.0,3.0,94,0.00,,,0.06,Wunderground v.1.15,2013-09-10 01:15:00,
2013-09-09 21:25:00,68.3,66.5,29.93,ESE,107,0.0,3.0,94,0.00,,,0.06,Wunderground v.1.15,2013-09-10 01:25:00,
2013-09-09 21:35:00,68.2,66.7,29.93,ESE,107,0.0,3.0,95,0.00,,,0.06,Wunderground v.1.15,2013-09-10 01:35:00,
2013-09-09 21:45:00,68.2,66.7,29.92,ESE,107,0.0,3.0,95,0.00,,,0.06,Wunderground v.1.15,2013-09-10 01:45:00,
2013-09-09 21:55:00,68.1,66.6,29.92,ESE,107,0.0,3.0,95,0.00,,,0.06,Wunderground v.1.15,2013-09-10 01:55:00,
2013-09-09 22:00:00,68.2,66.7,29.92,ESE,107,0.0,0.0,95,0.00,,,0.06,Wunderground v.1.15,2013-09-10 02:00:00,
2013-09-09 22:10:00,68.1,66.6,29.92,ESE,107,0.0,0.0,95,0.00,,,0.06,Wunderground v.1.15,2013-09-10 02:10:00,
2013-09-09 22:15:00,68.1,66.6,29.92,ESE,107,0.0,0.0,95,0.00,,,0.06,Wunderground v.1.15,2013-09-10 02:15:00,
2013-09-09 22:25:00,67.9,66.4,29.92,ESE,108,0.0,0.0,95,0.00,,,0.06,Wunderground v.1.15,2013-09-10 02:25:00,
2013-09-09 22:35:00,67.6,66.1,29.92,ESE,107,0.0,0.0,95,0.00,,,0.06,Wunderground v.1.15,2013-09-10 02:35:00,
2013-09-09 22:45:00,67.6,66.1,29.92,ESE,107,0.0,0.0,95,0.00,,,0.06,Wunderground v.1.15,2013-09-10 02:45:00,
2013-09-09 22:55:00,67.5,66.3,29.92,ESE,107,0.0,0.0,96,0.00,,,0.06,Wunderground v.1.15,2013-09-10 02:55:00,
2013-09-09 23:05:00,67.5,66.3,29.92,ESE,108,0.0,0.0,96,0.00,,,0.06,Wunderground v.1.15,2013-09-10 03:05:00,
2013-09-09 23:15:00,67.3,66.1,29.92,ESE,107,0.0,0.0,96,0.00,,,0.06,Wunderground v.1.15,2013-09-10 03:15:00,
2013-09-09 23:25:00,67.1,65.9,29.91,ESE,107,0.0,0.0,96,0.00,,,0.06,Wunderground v.1.15,2013-09-10 03:25:00,
2013-09-09 23:35:00,67.5,66.3,29.92,ESE,108,0.0,0.0,96,0.00,,,0.06,Wunderground v.1.15,2013-09-10 03:35:00,
2013-09-09 23:45:00,67.6,66.4,29.91,ESE,120,0.0,0.0,96,0.00,,,0.06,Wunderground v.1.15,2013-09-10 03:45:00,
2013-09-09 23:50:00,67.5,66.3,29.91,ESE,120,0.0,0.0,96,0.00,,,0.06,Wunderground v.1.15,2013-09-10 03:50:00,